Latest Coastal Weather Observations for Hobart Airport

IDT60701

Issued at 5:05 pm EDT Thursday 23 October 2014 (issued every 10 minutes, with the page automatically refreshed every 10 minutes)

About coastal observations | Map of coastal stations | Coastal observations for TAS | Marine services | Other Formats
Station Details ID: 094008 Name: HOBART AIRPORT Lat: -42.83 Lon: 147.50 Height: 4.0 m
Data from the previous 72 hours. | See also: Recent months at Hobart Airport
Date/Time
EDT
Temp

°C
Wind Pressure Rain
since 9am
mm
Weather Cloud Vis
km
Sea
Height
m
Swell
Dir
 
Speed
knots
Gust
knots
hPa Trend Height
m
Period
s
Dir
23/05:00pm 14.8 SE 10 15 1024.8 - 0.0 - Mostly clear 10 - - - -
23/04:30pm 14.8 SSE 12 16 1024.8 - 0.0 - Mostly clear 10 - - - -
23/04:00pm 13.8 SSE 14 17 1024.9 - 0.0 - Mostly clear 10 - - - -
23/03:30pm 14.5 SSE 12 16 1024.9 - 0.0 - Mostly clear 10 - - - -
23/03:00pm 14.6 SSE 11 15 1025.0 S 0.0 Haze Mostly clear 20 - - - -
23/02:30pm 14.5 SSE 11 14 1025.3 - 0.0 - Mostly clear 10 - - - -
23/02:00pm 14.8 SSE 11 17 1025.4 - 0.0 - Mostly clear 10 - - - -
23/01:30pm 14.9 S 12 16 1025.4 - 0.0 - Mostly clear 10 - - - -
23/01:00pm 14.9 S 12 15 1025.5 - 0.0 - Mostly clear 10 - - - -
23/12:30pm 14.0 S 10 15 1025.8 - 0.0 - Mostly clear 10 - - - -
23/12:00pm 13.8 S 9 13 1026.2 R 0.0 Haze Mostly clear 20 - - - -
23/11:30am 13.8 S 9 12 1026.4 - 0.0 - Partly cloudy 10 - - - -
23/11:00am 13.2 S 9 14 1026.7 - 0.0 - Mostly cloudy 10 - - - -
23/10:30am 12.8 S 10 15 1026.6 - 0.0 - Mostly cloudy 10 - - - -
23/10:00am 12.6 SSE 8 13 1026.6 - 0.0 - Mostly cloudy 10 - - - -
23/09:30am 12.4 SSE 10 14 1026.4 - 0.0 - Mostly cloudy 10 - - - -
23/09:00am 11.8 S 12 16 1026.3 R 0.0 Haze Mostly cloudy 20 - - - -
23/08:30am 12.0 SSE 13 19 1026.0 - 0.0 - Mostly cloudy 10 - - - -
23/08:00am 11.7 S 9 14 1025.6 - 0.0 - Mostly cloudy 10 - - - -
23/07:30am 11.4 SSW 11 15 1025.2 - 0.0 - Mostly cloudy 10 - - - -
23/07:00am 11.3 S 13 18 1024.7 - 0.0 - Mostly cloudy 10 - - - -
23/06:30am 11.1 S 13 19 1024.1 - 0.0 - Mostly clear 10 - - - -
23/06:00am 11.2 S 13 17 1023.7 R 0.0 Haze Mostly cloudy 25 - - - -
23/05:30am 11.3 S 11 18 1023.2 - 0.0 - Mostly cloudy 10 - - - -
23/05:00am 11.1 S 14 18 1022.8 - 0.0 - Mostly cloudy 10 - - - -
23/04:30am 11.5 S 13 16 1022.5 - 0.0 - Mostly cloudy 10 - - - -
23/04:00am 11.7 S 15 20 1022.1 - 0.0 - Mostly cloudy 10 - - - -
23/03:30am 11.6 S 17 23 1022.2 - 0.0 - Mostly cloudy 10 - - - -
23/03:00am 11.8 S 15 21 1022.0 R 0.0 Fine Mostly cloudy 40 - - - -
23/02:30am 11.9 S 15 20 1022.0 - 0.0 - Mostly cloudy 10 - - - -
23/02:00am 12.3 S 14 21 1021.8 - 0.0 - Mostly cloudy 10 - - - -
23/01:30am 12.8 S 15 18 1021.6 - 0.0 - Mostly cloudy 10 - - - -
23/01:00am 13.1 S 13 19 1021.5 - 0.0 - Mostly clear 10 - - - -
23/12:43am 13.2 S 16 26 1021.2 - 0.0 - Partly cloudy 10 - - - -
23/12:30am 13.5 S 15 22 1020.5 - 0.0 - Mostly clear 10 - - - -
23/12:00am 14.0 S 17 22 1020.3 R 0.0 Fine Mostly clear 10 - - - -
 
Date/Time
EDT
Temp

°C
Wind Pressure Rain
since 9am
mm
Weather Cloud Vis
km
Sea
Height
m
Swell
Dir
 
Speed
knots
Gust
knots
hPa Trend Height
m
Period
s
Dir
22/11:30pm 14.1 S 15 25 1019.9 - 0.0 - Mostly clear 10 - - - -
22/11:00pm 14.3 S 14 24 1019.7 - 0.0 - Mostly clear 10 - - - -
22/10:30pm 14.4 SSE 9 14 1019.3 - 0.0 - Mostly clear 10 - - - -
22/10:00pm 14.9 SSE 10 15 1018.8 - 0.0 - Partly cloudy 10 - - - -
22/09:30pm 14.3 SE 6 7 1018.4 - 0.0 - Partly cloudy 10 - - - -
22/09:00pm 14.2 SSE 6 9 1018.1 R 0.0 Haze Mostly clear 15 - - - -
22/08:30pm 14.4 S 11 14 1017.3 - 0.0 - Partly cloudy 10 - - - -
22/08:00pm 14.5 SSE 15 18 1016.7 - 0.0 - Partly cloudy 10 - - - -
22/07:30pm 15.4 S 19 25 1015.7 - 0.0 - Mostly clear 10 - - - -
22/07:00pm 16.1 S 17 24 1015.1 - 0.0 - - 10 - - - -
22/06:47pm 17.5 S 17 27 1014.8 - 0.0 - - 10 - - - -
22/06:30pm 18.4 S 13 20 1014.3 - 0.0 - Partly cloudy 10 - - - -
22/06:00pm 19.2 SSW 10 14 1013.9 F 0.0 Fine Mostly cloudy 35 - - - -
22/05:30pm 19.6 S 11 14 1014.1 - 0.0 - Cloudy 10 - - - -
22/05:00pm 18.9 S 8 10 1013.7 - 0.0 - Partly cloudy 10 - - - -
22/04:30pm 20.2 SSE 8 10 1013.5 - 0.0 - Partly cloudy 10 - - - -
22/04:00pm 19.6 SSE 12 15 1013.7 - 0.0 - Partly cloudy 10 - - - -
22/03:30pm 22.5 SE 12 16 1013.5 - 0.0 - - 10 - - - -
22/03:00pm 23.3 SSE 13 15 1013.6 F 0.0 Fine Mostly cloudy 35 - - - -
22/02:30pm 22.7 SE 11 15 1013.8 - 0.0 - - 10 - - - -
22/02:00pm 23.2 SSE 11 14 1014.1 - 0.0 - - 10 - - - -
22/01:30pm 23.8 SSE 9 12 1014.7 - 0.0 - - 10 - - - -
22/01:00pm 23.6 NW 7 12 1015.1 - 0.0 - - 10 - - - -
22/12:30pm 23.1 NNW 8 13 1015.7 - 0.0 - - 10 - - - -
22/12:00pm 21.9 NNW 8 13 1016.3 F 0.0 Fine Mostly clear 35 - - - -
22/11:30am 20.2 NW 9 14 1017.0 - 0.0 - - 10 - - - -
22/11:00am 19.3 NW 10 14 1017.4 - 0.0 - - 10 - - - -
22/10:30am 17.1 NW 10 14 1018.1 - 0.0 - - 10 - - - -
22/10:00am 16.2 NW 13 16 1018.8 - 0.0 - - 10 - - - -
22/09:30am 14.7 NW 14 17 1019.0 - 0.0 - - 10 - - - -
22/09:00am 14.2 NNW 12 16 1019.3 F 0.0 Fine Mostly cloudy 35 - - - -
22/08:30am 14.6 N 10 13 1019.7 - 0.0 - - 10 - - - -
22/08:00am 12.0 NW 8 10 1020.1 - 0.0 - - 10 - - - -
22/07:30am 10.7 NNW 10 15 1020.1 - 0.0 - - 10 - - - -
22/07:00am 10.7 NNW 11 16 1020.4 - 0.0 - - 10 - - - -
22/06:30am 9.7 NNW 10 14 1020.8 - 0.0 - - 10 - - - -
22/06:00am 9.7 NNW 9 12 1021.0 F 0.0 Haze Partly cloudy 30 - - - -
22/05:30am 9.6 NNW 10 15 1020.9 - 0.0 - - 10 - - - -
22/05:00am 9.9 NNW 8 14 1021.4 - 0.0 - - 10 - - - -
22/04:30am 10.4 N 11 17 1021.8 - 0.0 - - 10 - - - -
22/04:00am 11.1 N 11 19 1022.1 - 0.0 - - 10 - - - -
22/03:30am 11.5 N 14 21 1022.7 - 0.0 - - 10 - - - -
22/03:20am 11.6 N 16 26 1022.8 - 0.0 - - 10 - - - -
22/03:00am 11.6 N 13 20 1023.2 F 0.0 Haze Clear 30 - - - -
22/02:30am 11.8 N 13 20 1023.7 - 0.0 - - 10 - - - -
22/02:00am 11.6 N 12 18 1024.2 - 0.0 - - 10 - - - -
22/01:30am 11.5 NNW 8 11 1024.5 - 0.0 - - 10 - - - -
22/01:00am 12.0 NNW 7 11 1024.8 - 0.0 - - 10 - - - -
22/12:30am 11.2 N 8 10 1025.1 - 0.0 - - 10 - - - -
22/12:00am 11.2 N 7 9 1025.4 F 0.0 Haze Clear 30 - - - -
 
Date/Time
EDT
Temp

°C
Wind Pressure Rain
since 9am
mm
Weather Cloud Vis
km
Sea
Height
m
Swell
Dir
 
Speed
knots
Gust
knots
hPa Trend Height
m
Period
s
Dir
21/11:30pm 11.2 N 7 9 1025.8 - 0.0 - - 10 - - - -
21/11:00pm 12.4 N 8 11 1026.0 - 0.0 - - 10 - - - -
21/10:30pm 10.5 N 6 7 1026.3 - 0.0 - - 10 - - - -
21/10:00pm 12.2 CALM 0 3 1026.6 - 0.0 - - 10 - - - -
21/09:30pm 13.3 NE 9 11 1027.0 - 0.0 - - 10 - - - -
21/09:00pm 14.4 NNE 10 13 1026.9 F 0.0 Haze Clear 30 - - - -
21/08:30pm 13.7 NE 8 12 1026.8 - 0.0 - - 10 - - - -
21/08:00pm 14.8 NE 10 13 1026.9 - 0.0 - - 10 - - - -
21/07:30pm 15.6 NE 9 14 1026.7 - 0.0 - - 10 - - - -
21/07:00pm 16.6 NE 12 15 1026.6 - 0.0 - - 10 - - - -
21/06:30pm 17.8 NE 12 16 1026.7 - 0.0 - - 10 - - - -
21/06:00pm 18.5 NE 13 16 1026.8 F 0.0 Haze Clear 30 - - - -
21/05:30pm 19.6 NE 12 16 1027.0 - 0.0 - - 10 - - - -
21/05:00pm 19.7 NE 12 15 1027.0 - 0.0 - - 10 - - - -
21/04:30pm 19.7 SSE 7 10 1027.5 - 0.0 - - 10 - - - -
21/04:00pm 19.3 SE 9 12 1028.1 - 0.0 - - 10 - - - -
21/03:30pm 19.0 SSE 9 11 1028.6 - 0.0 - - 10 - - - -
21/03:00pm 18.4 SE 6 9 1029.1 F 0.0 Haze Clear 30 - - - -
21/02:30pm 19.5 NNE 7 12 1029.9 - 0.0 - - 10 - - - -
21/02:00pm 18.8 NE 7 11 1030.4 - 0.0 - Mostly clear 10 - - - -
21/01:30pm 17.8 NE 6 9 1030.9 - 0.0 - Mostly clear 10 - - - -
21/01:00pm 16.1 SSE 5 8 1031.4 - 0.0 - Mostly clear 10 - - - -
21/12:30pm 17.3 ENE 7 10 1031.7 - 0.0 - Mostly clear 10 - - - -
21/12:00pm 15.8 NE 5 9 1032.2 F 0.0 Haze Mostly clear 30 - - - -
21/11:30am 15.2 NE 6 10 1032.5 - 0.0 - Mostly clear 10 - - - -
21/11:00am 14.6 NNE 5 9 1033.1 - 0.0 - Mostly clear 10 - - - -
21/10:30am 13.5 WNW 7 10 1033.5 - 0.0 - Mostly clear 10 - - - -
21/10:00am 12.9 NW 8 12 1033.7 - 0.0 - Mostly clear 10 - - - -
21/09:30am 12.5 NNW 7 10 1034.0 - 0.0 - Mostly clear 10 - - - -
21/09:00am 10.3 NNW 9 11 1034.2 F 0.0 Haze Clear 30 - - - -
21/08:30am 9.5 NW 8 10 1034.3 - 0.0 - - 10 - - - -
21/08:00am 7.4 NW 10 11 1034.3 - 0.0 - - 10 - - - -
21/07:30am 6.2 NW 9 10 1034.1 - 0.0 - - 10 - - - -
21/07:00am 4.6 NW 8 9 1034.0 - 0.0 - - 10 - - - -
21/06:30am 4.1 NW 10 11 1033.9 - 0.0 - - 10 - - - -
21/06:00am 3.9 NW 9 10 1033.8 S 0.0 Haze Mostly clear 25 - - - -
21/05:30am 3.5 NW 10 11 1033.6 - 0.0 - Mostly clear 10 - - - -
21/05:00am 4.1 NW 6 8 1033.4 - 0.0 - - 10 - - - -
21/04:30am 4.7 NW 7 9 1033.3 - 0.0 - - 10 - - - -
21/04:00am 4.6 NW 7 8 1033.5 - 0.0 - - 10 - - - -
21/03:30am 4.8 NW 9 9 1033.5 - 0.0 - - 10 - - - -
21/03:00am 5.1 NW 7 8 1033.6 F 0.0 Haze Clear 30 - - - -
21/02:30am 5.5 NW 7 8 1034.0 - 0.0 - - 10 - - - -
21/02:00am 6.2 NW 7 8 1034.0 - 0.0 - Mostly clear 10 - - - -
21/01:30am 6.9 N 4 5 1034.0 - 0.0 - Mostly clear 10 - - - -
21/01:00am 7.5 N 5 5 1034.5 - 0.0 - Mostly clear 10 - - - -
21/12:30am 8.6 N 5 6 1034.8 - 0.0 - Partly cloudy 10 - - - -
21/12:00am 10.1 NE 5 6 1034.9 F 0.0 Haze Mostly cloudy 30 - - - -
 
Date/Time
EDT
Temp

°C
Wind Pressure Rain
since 9am
mm
Weather Cloud Vis
km
Sea
Height
m
Swell
Dir
 
Speed
knots
Gust
knots
hPa Trend Height
m
Period
s
Dir
20/11:30pm 10.0 E 5 6 1035.2 - 0.0 - Mostly cloudy 10 - - - -
20/11:00pm 10.1 E 3 4 1035.7 - 0.0 - Mostly cloudy 10 - - - -
20/10:30pm 10.1 E 4 5 1035.8 - 0.0 - Mostly cloudy 10 - - - -
20/10:00pm 10.3 ESE 3 5 1035.9 - 0.0 - Mostly cloudy 10 - - - -
20/09:30pm 10.3 ESE 5 8 1035.8 - 0.0 - Mostly cloudy 10 - - - -
20/09:00pm 10.5 SE 7 9 1035.7 R 0.0 Haze Mostly cloudy 30 - - - -
20/08:30pm 10.6 SSE 8 11 1035.3 - 0.0 - Mostly cloudy 10 - - - -
20/08:00pm 10.5 SSE 11 14 1034.8 - 0.0 - Mostly cloudy 10 - - - -
20/07:30pm 10.5 S 11 15 1034.6 - 0.0 - Partly cloudy 10 - - - -
20/07:00pm 10.9 S 12 17 1034.3 - 0.0 - Mostly clear 10 - - - -
20/06:30pm 11.3 SSE 12 16 1034.1 - 0.0 - Mostly clear 10 - - - -
20/06:00pm 11.8 SSE 13 17 1033.8 F 0.0 Fine Mostly clear 40 - - - -
20/05:30pm 12.4 SSE 13 17 1033.7 - 0.0 - Mostly clear 10 - - - -

Other Formats:

Comma delimited format used in spreadsheet applications
http://www.bom.gov.au/fwo/IDT60701/IDT60701.94975.axf

JavaScript Object Notation format (JSON) in row-major order
http://www.bom.gov.au/fwo/IDT60701/IDT60701.94975.json